Tropical Cyclones
[Index]
Main Index Home Page Stock Weather Photos Extreme Storms Discussion Storm News and Storm Chasing Reports Tropical Cyclones / Hurricanes / Typhoons Weather Data and Links Wild Fires / Bushfires Weather Observation Techniques Weather Picture Catalogue Tornado Pictures and Reports Stock Video Footage and DVDs for sale
Season 1973-1974 Tropical Cyclone INES Track Map
Season 1973-1974 Summaries: [BoM-AU] [JTWC-AU] [JTWC-SIO] [JTWC-SPAC] [JTWC-SH]
<<- Previous TC | JTWC 1973-1974 Season | Next TC ->>

click for intensity scale information  Lat/long Grid: Show Hide

 Date Labels: Show Hide

Joint Typhoon Warning Centre Cyclone Data

Name: INES
Number: 844 / 7406

17 Nov 1973 00:00 UTC to 25 Nov 1973 00:00 UTC

    date/time    lat    long     hPa   cat  kts
1973-11-17 00   11.0   134.7                              
1973-11-17 06   10.8   134.3                              
1973-11-17 12   10.5   133.8                              
1973-11-17 18   10.3   133.0                              
1973-11-18 00   10.0   132.3                              
1973-11-18 06   10.2   132.0                              
1973-11-18 12   10.6   131.8                              
1973-11-18 18   10.8   131.4                              
1973-11-19 00   11.0   130.9                              
1973-11-19 06   11.1   130.3                              
1973-11-19 12   11.3   129.6                              
1973-11-19 18   11.5   129.1                              
1973-11-20 00   11.8   128.5                              
1973-11-20 06   12.1   127.8                              
1973-11-20 12   12.4   127.1                              
1973-11-20 18   12.8   126.4                              
1973-11-21 00   13.3   125.8                              
1973-11-21 06   13.8   125.3                              
1973-11-21 12   14.4   124.8                              
1973-11-21 18   14.9   124.3                              
1973-11-22 00   15.5   123.9                              
1973-11-22 06   16.1   123.9                              
1973-11-22 12   16.8   124.2                              
1973-11-22 18   17.4   124.6                              
1973-11-23 00   18.1   125.0                              
1973-11-23 06   18.2   124.1                              
1973-11-23 12   18.2   123.5                              
1973-11-23 18   18.8   124.7                              
1973-11-24 00   19.3   126.3                              
1973-11-24 06   19.4   128.2                              
1973-11-24 12   19.5   130.0                              
1973-11-24 18   19.5   131.3                              
1973-11-25 00   19.5   132.1                              
Winds are 1-min average.

Tropical cyclone tracks developed by Michael Bath using data from the Joint Typhoon Warning Centre Best Tracks and Google Maps.


[Australian Severe Weather index] [Copyright Notice] [Email Contacts] [Search This Site] [Privacy Policy]
Document: tropical_cyclone_ines.htm Updated: 18 September 2016